Other Surface Observations
Issued by NWS Great Falls, MT

Home | Current Version | Previous Version | Text Only | Print | Product List | Glossary On
Versions: 1 2 3 4 5 6 7 8 9 10 11 12 13 14 15 16 17 18 19 20 21 22 23 24 25 26 27 28 29 30 31 32 33 34 35 36 37 38 39 40 41 42 43 44 45 46 47 48 49 50
000
SXUS55 KTFX 022212
OSOTFX

AREA AWOS OBSERVATIONS
NATIONAL WEATHER SERVICE GREAT FALLS MT
0408 PM MDT Wed Sep 02 2015

METAR K6S8 022155Z AUTO 19004KT 40SM 35/04 A2972 RMK A01 T03500044
METAR K7S0 022155Z AUTO 27012KT 40SM 21/06 A2991 RMK A01 T02050061
METAR K7S1 022155Z AUTO 15013KT 25SM 29/01 A2977 RMK A01 T02880011
METAR K97M 022155Z AUTO 15005KT 40SM 35/02 A2977 RMK A01 T03500022
METAR K9S2 022155Z AUTO 23003KT 40SM 34/05 A2967 RMK A01 T03440050
METAR K9S5 022155Z AUTO 19019KT 25SM 31/M27 A2973 RMK A01 T03111272
METAR KM75 022155Z AUTO 04000KT 40SM 33/09 A2961 RMK A01 T03270094
METAR KRPX 022155Z AUTO 21012KT 40SM 34/M01 A2964 RMK A01 T03381005
METAR KS01 022155Z AUTO 21015KT 25SM 28/01 A2978 RMK A01 T02770005
METAR KS34 022155Z AUTO 27014KT 40SM 19/07 A2990 RMK A01 T01880066
METAR KTHM 022155Z AUTO 27014KT 40SM 17/06 A2994 RMK A01 T01720055



USA.gov is the U.S. government's official web portal to all federal, state and local government web resources and services.